createdAt,value
2023-03-29T00:01:35.789Z,100576.84
2023-03-29T00:04:06.475Z,100573.16
2023-03-29T00:06:33.673Z,100568.75
2023-03-29T00:09:01.571Z,100578.59
2023-03-29T00:11:27.971Z,100580.28
2023-03-29T00:13:54.382Z,100578.41
2023-03-29T00:16:21.139Z,100569.66
2023-03-29T00:18:47.573Z,100578.47
2023-03-29T00:21:14.006Z,100573.25
2023-03-29T00:23:40.360Z,100575.72
2023-03-29T00:26:08.274Z,100569.59
2023-03-29T00:28:35.402Z,100570.47
2023-03-29T00:31:10.431Z,100568.03
2023-03-29T00:33:37.805Z,100564.50
2023-03-29T00:36:04.617Z,100559.94
2023-03-29T00:38:31.825Z,100553.94
2023-03-29T00:40:58.520Z,100548.69
2023-03-29T00:43:25.057Z,100544.16
2023-03-29T00:45:51.462Z,100539.63
2023-03-29T00:48:22.110Z,100540.56
2023-03-29T00:50:53.938Z,100537.84
2023-03-29T00:53:42.660Z,100539.44
2023-03-29T00:56:18.464Z,100535.91
2023-03-29T00:58:54.863Z,100532.28
2023-03-29T01:01:28.547Z,100526.91
2023-03-29T01:04:04.535Z,100531.56
2023-03-29T01:06:35.076Z,100525.66
2023-03-29T01:09:07.981Z,100521.31
2023-03-29T01:11:39.695Z,100526.63
2023-03-29T01:14:15.477Z,100516.88
2023-03-29T01:16:42.383Z,100516.75
2023-03-29T01:19:13.693Z,100510.00
2023-03-29T01:21:44.870Z,100501.13
2023-03-29T01:24:20.339Z,100511.56
2023-03-29T01:26:59.643Z,100505.28
2023-03-29T01:29:38.966Z,100512.22
2023-03-29T01:32:23.436Z,100509.53
2023-03-29T01:34:57.588Z,100505.97
2023-03-29T01:37:32.337Z,100509.59
2023-03-29T01:39:58.755Z,100501.63
2023-03-29T01:42:36.357Z,100499.88
2023-03-29T01:45:09.837Z,100493.72
2023-03-29T01:47:47.726Z,100494.50
2023-03-29T01:50:27.269Z,100496.31
2023-03-29T01:53:04.166Z,100497.19
2023-03-29T01:55:35.998Z,100491.91
2023-03-29T01:58:05.776Z,100470.94
2023-03-29T02:00:34.778Z,100463.06
2023-03-29T02:03:07.845Z,100459.50
2023-03-29T02:05:37.356Z,100462.13
2023-03-29T02:08:05.626Z,100463.19
2023-03-29T02:10:34.000Z,100460.50
2023-03-29T02:13:00.901Z,100455.97
2023-03-29T02:15:27.995Z,100455.78
2023-03-29T02:17:54.624Z,100457.59
2023-03-29T02:20:29.954Z,100449.75
2023-03-29T02:23:12.986Z,100445.16
2023-03-29T02:25:39.505Z,100439.94
2023-03-29T02:28:06.922Z,100441.75
2023-03-29T02:30:54.595Z,100445.16
2023-03-29T02:33:31.198Z,100445.97
2023-03-29T02:36:04.240Z,100441.56
2023-03-29T02:38:31.946Z,100445.28
2023-03-29T02:41:00.287Z,100446.03
2023-03-29T02:43:28.608Z,100438.03
2023-03-29T02:45:55.778Z,100427.63
2023-03-29T02:48:26.790Z,100435.50
2023-03-29T02:50:59.866Z,100426.69
2023-03-29T02:53:45.699Z,100426.81
2023-03-29T02:56:13.450Z,100428.53
2023-03-29T02:58:40.946Z,100429.53
2023-03-29T03:01:08.319Z,100411.13
2023-03-29T03:03:35.812Z,100422.63
2023-03-29T03:06:02.601Z,100420.09
2023-03-29T03:08:29.121Z,100416.72
2023-03-29T03:10:55.633Z,100406.31
2023-03-29T03:13:22.057Z,100416.00
2023-03-29T03:15:49.303Z,100416.09
2023-03-29T03:18:16.645Z,100415.88
2023-03-29T03:20:46.449Z,100411.69
2023-03-29T03:23:12.879Z,100409.63
2023-03-29T03:25:39.419Z,100408.94
2023-03-29T03:28:06.005Z,100402.56
2023-03-29T03:30:33.802Z,100403.50
2023-03-29T03:33:00.367Z,100394.75
2023-03-29T03:35:26.751Z,100397.31
2023-03-29T03:37:53.090Z,100393.75
2023-03-29T03:40:20.758Z,100395.47
2023-03-29T03:42:47.209Z,100392.94
2023-03-29T03:45:13.700Z,100396.53
2023-03-29T03:47:40.935Z,100388.66
2023-03-29T03:50:09.030Z,100389.47
2023-03-29T03:52:35.547Z,100394.88
2023-03-29T03:55:03.016Z,100401.97
2023-03-29T03:57:29.668Z,100397.66
2023-03-29T03:59:56.283Z,100402.06
2023-03-29T04:02:22.939Z,100406.50
2023-03-29T04:04:49.348Z,100408.31
2023-03-29T04:07:17.757Z,100411.75
2023-03-29T04:09:45.041Z,100413.47
2023-03-29T04:12:11.974Z,100407.41
2023-03-29T04:14:38.515Z,100407.38
2023-03-29T04:17:05.629Z,100401.25
2023-03-29T04:19:32.010Z,100399.53
2023-03-29T04:21:58.451Z,100395.09
2023-03-29T04:24:25.124Z,100393.34
2023-03-29T04:26:51.503Z,100392.38
2023-03-29T04:29:18.003Z,100397.66
2023-03-29T04:31:44.472Z,100392.53
2023-03-29T04:34:10.984Z,100389.00
2023-03-29T04:36:37.522Z,100384.53
2023-03-29T04:39:04.421Z,100377.44
2023-03-29T04:41:32.532Z,100382.72
2023-03-29T04:43:58.928Z,100371.22
2023-03-29T04:46:26.489Z,100373.03
2023-03-29T04:48:53.989Z,100371.22
2023-03-29T04:51:22.188Z,100374.69
2023-03-29T04:53:50.326Z,100370.28
2023-03-29T04:56:17.263Z,100377.31
2023-03-29T04:58:44.338Z,100377.31
2023-03-29T05:01:10.984Z,100375.53
2023-03-29T05:03:37.469Z,100375.44
2023-03-29T05:06:08.730Z,100372.06
2023-03-29T05:08:38.874Z,100373.75
2023-03-29T05:11:10.348Z,100374.50
2023-03-29T05:13:38.170Z,100368.16
2023-03-29T05:16:05.233Z,100374.34
2023-03-29T05:18:31.816Z,100375.16
2023-03-29T05:20:59.510Z,100377.78
2023-03-29T05:23:26.361Z,100388.28
2023-03-29T05:25:55.883Z,100383.06
2023-03-29T05:28:22.890Z,100387.38
2023-03-29T05:31:00.064Z,100380.47
2023-03-29T05:33:27.080Z,100385.75
2023-03-29T05:36:05.225Z,100385.09
2023-03-29T05:38:35.703Z,100378.06
2023-03-29T05:41:02.987Z,100386.16
2023-03-29T05:43:29.858Z,100385.22
2023-03-29T05:45:56.495Z,100387.72
2023-03-29T05:48:25.737Z,100381.47
2023-03-29T05:50:53.872Z,100384.03
2023-03-29T05:53:22.167Z,100391.09
2023-03-29T05:55:48.818Z,100391.22
2023-03-29T05:58:17.970Z,100391.09
2023-03-29T06:00:44.902Z,100398.13
2023-03-29T06:03:21.301Z,100394.66
2023-03-29T06:05:56.323Z,100390.44
2023-03-29T06:08:23.334Z,100399.00
2023-03-29T06:10:50.163Z,100394.66
2023-03-29T06:13:17.089Z,100396.28
2023-03-29T06:15:43.448Z,100400.06
2023-03-29T06:18:09.940Z,100400.78
2023-03-29T06:20:36.384Z,100402.38
2023-03-29T06:23:02.779Z,100394.38
2023-03-29T06:25:29.967Z,100389.81
2023-03-29T06:27:56.365Z,100402.25
2023-03-29T06:30:23.295Z,100398.66
2023-03-29T06:32:50.559Z,100396.91
2023-03-29T06:35:17.116Z,100396.66
2023-03-29T06:37:49.367Z,100402.78
2023-03-29T06:40:17.565Z,100399.91
2023-03-29T06:42:45.073Z,100404.22
2023-03-29T06:45:11.678Z,100412.13
2023-03-29T06:47:38.110Z,100402.50
2023-03-29T06:50:05.493Z,100398.03
2023-03-29T06:52:31.905Z,100402.47
2023-03-29T06:54:58.420Z,100397.88
2023-03-29T06:57:25.303Z,100402.34
2023-03-29T06:59:51.744Z,100401.38
2023-03-29T07:02:18.113Z,100405.59
2023-03-29T07:04:44.586Z,100403.44
2023-03-29T07:07:19.935Z,100404.41
2023-03-29T07:09:53.888Z,100402.31
2023-03-29T07:12:22.437Z,100407.97
2023-03-29T07:14:48.873Z,100415.06
2023-03-29T07:17:16.626Z,100411.44
2023-03-29T07:19:43.316Z,100416.44
2023-03-29T07:22:09.918Z,100411.56
2023-03-29T07:24:36.327Z,100418.84
2023-03-29T07:27:04.434Z,100416.91
2023-03-29T07:29:31.989Z,100406.53
2023-03-29T07:31:58.412Z,100411.75
2023-03-29T07:34:24.787Z,100415.69
2023-03-29T07:36:51.577Z,100415.81
2023-03-29T07:39:18.117Z,100408.63
2023-03-29T07:41:44.531Z,100416.25
2023-03-29T07:44:10.916Z,100422.53
2023-03-29T07:46:37.885Z,100416.00
2023-03-29T07:49:04.647Z,100417.94
2023-03-29T07:51:31.633Z,100415.00
2023-03-29T07:53:58.034Z,100410.44
2023-03-29T07:56:24.781Z,100419.13
2023-03-29T07:58:51.694Z,100413.09
2023-03-29T08:01:19.923Z,100416.47
2023-03-29T08:03:46.663Z,100424.41
2023-03-29T08:06:13.264Z,100425.03
2023-03-29T08:08:39.648Z,100427.69
2023-03-29T08:11:08.836Z,100415.03
2023-03-29T08:13:35.272Z,100410.94
2023-03-29T08:16:02.043Z,100418.31
2023-03-29T08:18:28.452Z,100411.09
2023-03-29T08:20:54.815Z,100415.63
2023-03-29T08:23:21.306Z,100415.38
2023-03-29T08:25:47.738Z,100412.66
2023-03-29T08:28:14.181Z,100401.91
2023-03-29T08:30:40.556Z,100409.19
2023-03-29T08:33:07.572Z,100409.03
2023-03-29T08:35:34.066Z,100411.06
2023-03-29T08:38:00.687Z,100424.38
2023-03-29T08:40:30.072Z,100412.91
2023-03-29T08:43:12.579Z,100412.91
2023-03-29T08:45:55.937Z,100413.75
2023-03-29T08:48:22.312Z,100413.25
2023-03-29T08:50:54.718Z,100419.38
2023-03-29T08:53:31.358Z,100413.75
2023-03-29T08:55:59.902Z,100408.59
2023-03-29T08:58:31.538Z,100402.31
2023-03-29T09:01:00.122Z,100404.78
2023-03-29T09:03:38.104Z,100396.66
2023-03-29T09:06:07.576Z,100396.41
2023-03-29T09:08:43.567Z,100396.28
2023-03-29T09:11:19.019Z,100397.69
2023-03-29T09:14:23.144Z,100399.44
2023-03-29T09:17:33.674Z,100403.66
2023-03-29T09:20:31.300Z,100393.09
2023-03-29T09:23:03.721Z,100393.88
2023-03-29T09:26:02.127Z,100401.53
2023-03-29T09:28:40.609Z,100404.63
2023-03-29T09:31:18.106Z,100408.25
2023-03-29T09:33:50.391Z,100406.59
2023-03-29T09:36:25.322Z,100400.97
2023-03-29T09:38:54.453Z,100380.19
2023-03-29T09:41:33.776Z,100371.44
2023-03-29T09:44:05.800Z,100384.91
2023-03-29T09:47:01.930Z,100373.66
2023-03-29T09:49:34.599Z,100377.28
2023-03-29T09:52:08.792Z,100380.53
2023-03-29T09:54:35.610Z,100368.28
2023-03-29T09:57:02.088Z,100366.94
2023-03-29T09:59:28.584Z,100361.44
2023-03-29T10:02:05.938Z,100363.75
2023-03-29T10:04:32.477Z,100365.97
2023-03-29T10:06:59.868Z,100360.44
2023-03-29T10:09:29.909Z,100358.44
2023-03-29T10:12:05.079Z,100352.13
2023-03-29T10:14:38.136Z,100342.81
2023-03-29T10:17:11.618Z,100343.09
2023-03-29T10:19:38.019Z,100331.69
2023-03-29T10:22:17.587Z,100342.97
2023-03-29T10:24:52.203Z,100329.84
2023-03-29T10:27:27.778Z,100336.16
2023-03-29T10:29:55.270Z,100332.19
2023-03-29T10:32:21.747Z,100321.28
2023-03-29T10:34:49.630Z,100332.03
2023-03-29T10:37:19.396Z,100323.09
2023-03-29T10:39:48.185Z,100328.91
2023-03-29T10:42:23.630Z,100327.16
2023-03-29T10:44:58.071Z,100314.16
2023-03-29T10:47:25.449Z,100321.50
2023-03-29T10:49:56.624Z,100322.59
2023-03-29T10:52:23.632Z,100314.56
2023-03-29T10:54:52.581Z,100293.69
2023-03-29T10:57:57.386Z,100306.72
2023-03-29T11:00:33.869Z,100307.81
2023-03-29T11:03:15.885Z,100302.59
2023-03-29T11:06:06.972Z,100305.03
2023-03-29T11:08:48.332Z,100300.34
2023-03-29T11:12:04.745Z,100303.00
2023-03-29T11:15:11.026Z,100296.63
2023-03-29T11:18:14.438Z,100305.25
2023-03-29T11:21:10.807Z,100305.22
2023-03-29T11:23:40.004Z,100296.03
2023-03-29T11:26:31.177Z,100291.63
2023-03-29T11:29:04.367Z,100295.75
2023-03-29T11:31:44.342Z,100296.19
2023-03-29T11:34:17.543Z,100288.22
2023-03-29T11:36:55.030Z,100290.94
2023-03-29T11:39:58.930Z,100287.97
2023-03-29T11:42:32.047Z,100286.03
2023-03-29T11:45:02.092Z,100284.38
2023-03-29T11:47:36.545Z,100277.06
2023-03-29T11:50:13.384Z,100287.03
2023-03-29T11:52:47.187Z,100281.97
2023-03-29T11:55:26.110Z,100270.34
2023-03-29T11:57:57.976Z,100267.63
2023-03-29T12:00:30.438Z,100265.72
2023-03-29T12:02:56.868Z,100254.56
2023-03-29T12:05:30.234Z,100251.50
2023-03-29T12:08:18.797Z,100247.16
2023-03-29T12:10:51.427Z,100254.28
2023-03-29T12:13:20.192Z,100254.91
2023-03-29T12:16:01.135Z,100252.63
2023-03-29T12:18:38.365Z,100249.78
2023-03-29T12:21:11.784Z,100247.97
2023-03-29T12:23:38.592Z,100260.16
2023-03-29T12:26:17.008Z,100249.28
2023-03-29T12:28:55.676Z,100254.50
2023-03-29T12:31:38.626Z,100247.16
2023-03-29T12:34:10.289Z,100252.94
2023-03-29T12:37:09.132Z,100254.13
2023-03-29T12:39:36.916Z,100250.44
2023-03-29T12:42:15.244Z,100258.78
2023-03-29T12:44:46.978Z,100246.09
2023-03-29T12:47:21.348Z,100253.38
2023-03-29T12:49:56.541Z,100253.69
2023-03-29T12:52:42.917Z,100240.53
2023-03-29T12:55:31.158Z,100237.00
2023-03-29T12:58:23.067Z,100225.47
2023-03-29T13:00:57.684Z,100231.53
2023-03-29T13:03:27.110Z,100232.97
2023-03-29T13:06:02.537Z,100234.31
2023-03-29T13:08:45.634Z,100223.81
2023-03-29T13:11:27.233Z,100219.63
2023-03-29T13:13:54.025Z,100206.75
2023-03-29T13:16:29.860Z,100203.09
2023-03-29T13:19:09.838Z,100198.38
2023-03-29T13:22:00.501Z,100188.00
2023-03-29T13:24:39.059Z,100188.16
2023-03-29T13:27:17.976Z,100175.88
2023-03-29T13:30:15.425Z,100164.34
2023-03-29T13:32:57.080Z,100175.88
2023-03-29T13:35:26.560Z,100173.94
2023-03-29T13:38:17.926Z,100173.38
2023-03-29T13:40:56.801Z,100170.09
2023-03-29T13:43:34.922Z,100181.06
2023-03-29T13:46:01.418Z,100172.22
2023-03-29T13:48:31.757Z,100168.22
2023-03-29T13:51:08.301Z,100162.03
2023-03-29T13:53:51.536Z,100147.88
2023-03-29T13:56:26.239Z,100145.56
2023-03-29T13:59:00.528Z,100138.66
2023-03-29T14:01:40.738Z,100140.00
2023-03-29T14:04:15.530Z,100121.81
2023-03-29T14:06:45.640Z,100131.00
2023-03-29T14:09:15.331Z,100132.75
2023-03-29T14:11:45.655Z,100126.78
2023-03-29T14:14:12.301Z,100134.13
2023-03-29T14:16:40.613Z,100130.31
2023-03-29T14:19:29.430Z,100130.88
2023-03-29T14:21:57.559Z,100123.41
2023-03-29T14:24:38.642Z,100116.97
2023-03-29T14:27:06.551Z,100129.56
2023-03-29T14:29:34.557Z,100131.00
2023-03-29T14:32:18.394Z,100125.22
2023-03-29T14:34:49.448Z,100119.97
2023-03-29T14:37:23.652Z,100111.88
2023-03-29T14:39:50.667Z,100117.06
2023-03-29T14:42:26.667Z,100107.44
2023-03-29T14:45:04.582Z,100111.09
2023-03-29T14:47:33.737Z,100109.97
2023-03-29T14:50:01.781Z,100115.50
2023-03-29T14:52:30.273Z,100105.72
2023-03-29T14:54:59.581Z,100099.38
2023-03-29T14:57:32.809Z,100100.72
2023-03-29T15:00:01.778Z,100109.16
2023-03-29T15:02:31.094Z,100102.66
2023-03-29T15:05:03.338Z,100094.19
2023-03-29T15:07:31.498Z,100090.75
2023-03-29T15:09:59.927Z,100099.78
2023-03-29T15:12:30.658Z,100095.72
2023-03-29T15:14:57.759Z,100087.75
2023-03-29T15:17:50.466Z,100090.72
2023-03-29T15:20:21.463Z,100082.66
2023-03-29T15:22:56.881Z,100091.91
2023-03-29T15:25:33.512Z,100083.63
2023-03-29T15:28:01.523Z,100077.84
2023-03-29T15:30:57.379Z,100087.28
2023-03-29T15:33:34.508Z,100089.75
2023-03-29T15:36:03.498Z,100088.03
2023-03-29T15:38:42.577Z,100085.75
2023-03-29T15:41:10.818Z,100090.84
2023-03-29T15:43:37.449Z,100092.19
2023-03-29T15:46:04.324Z,100080.25
2023-03-29T15:48:33.406Z,100074.88
2023-03-29T15:51:03.797Z,100076.72
2023-03-29T15:53:32.199Z,100082.75
2023-03-29T15:56:01.186Z,100081.97
2023-03-29T15:58:30.259Z,100083.97
2023-03-29T16:01:23.305Z,100074.03
2023-03-29T16:03:50.122Z,100076.66
2023-03-29T16:06:22.067Z,100073.84
2023-03-29T16:08:48.472Z,100072.13
2023-03-29T16:11:14.880Z,100076.69
2023-03-29T16:13:41.409Z,100071.63
2023-03-29T16:16:10.645Z,100072.56
2023-03-29T16:18:37.692Z,100062.50
2023-03-29T16:21:04.725Z,100053.84
2023-03-29T16:23:31.303Z,100052.28
2023-03-29T16:25:59.326Z,100047.34
2023-03-29T16:28:25.842Z,100044.47
2023-03-29T16:30:52.257Z,100034.72
2023-03-29T16:33:18.655Z,100033.72
2023-03-29T16:35:45.042Z,100030.44
2023-03-29T16:38:11.456Z,100033.72
2023-03-29T16:40:38.404Z,100029.31
2023-03-29T16:43:05.440Z,100026.22
2023-03-29T16:45:31.886Z,100022.63
2023-03-29T16:47:58.295Z,100023.53
2023-03-29T16:50:24.819Z,100001.59
2023-03-29T16:52:52.482Z,100009.72
2023-03-29T16:55:19.276Z,100005.66
2023-03-29T16:57:47.297Z,100001.31
2023-03-29T17:00:15.978Z,99997.09
2023-03-29T17:02:43.523Z,99998.56
2023-03-29T17:05:11.170Z,99998.38
2023-03-29T17:07:39.131Z,99992.44
2023-03-29T17:10:09.931Z,99990.44
2023-03-29T17:15:15.281Z,99984.28
2023-03-29T17:17:41.766Z,99991.03
2023-03-29T17:20:12.317Z,99973.91
2023-03-29T17:22:39.733Z,99977.72
2023-03-29T17:25:07.479Z,99979.19
2023-03-29T17:27:35.050Z,99975.03
2023-03-29T17:30:02.129Z,99979.00
2023-03-29T17:32:28.537Z,99986.19
2023-03-29T17:34:55.001Z,99980.22
2023-03-29T17:37:21.424Z,99977.13
2023-03-29T17:39:47.760Z,99988.97
2023-03-29T17:42:15.916Z,99981.38
2023-03-29T17:44:42.260Z,99971.59
2023-03-29T17:47:08.712Z,99976.78
2023-03-29T17:49:35.131Z,99981.75
2023-03-29T17:52:01.630Z,99981.44
2023-03-29T17:54:28.135Z,99978.38
2023-03-29T17:56:54.558Z,99979.41
2023-03-29T17:59:21.012Z,99970.78
2023-03-29T18:01:47.450Z,99965.72
2023-03-29T18:04:13.920Z,99977.09
2023-03-29T18:06:40.423Z,99971.25
2023-03-29T18:09:06.861Z,99973.72
2023-03-29T18:11:33.259Z,99982.72
2023-03-29T18:14:00.870Z,99979.81
2023-03-29T18:16:27.458Z,99971.00
2023-03-29T18:18:54.054Z,99976.47
2023-03-29T18:21:20.842Z,99971.94
2023-03-29T18:23:49.057Z,99973.78
2023-03-29T18:26:16.473Z,99973.34
2023-03-29T18:28:46.903Z,99983.63
2023-03-29T18:31:13.755Z,99971.09
2023-03-29T18:33:40.205Z,99958.19
2023-03-29T18:36:10.760Z,99956.78
2023-03-29T18:38:40.396Z,99951.53
2023-03-29T18:41:08.512Z,99945.22
2023-03-29T18:43:36.983Z,99947.78
2023-03-29T18:46:03.566Z,99961.00
2023-03-29T18:48:31.085Z,99958.84
2023-03-29T18:50:57.848Z,99963.66
2023-03-29T18:53:24.469Z,99962.34
2023-03-29T18:55:50.866Z,99965.81
2023-03-29T18:58:17.823Z,99954.16
2023-03-29T19:00:44.483Z,99949.97
2023-03-29T19:03:11.083Z,99963.34
2023-03-29T19:05:41.095Z,99960.28
2023-03-29T19:08:08.435Z,99962.47
2023-03-29T19:10:36.572Z,99968.84
2023-03-29T19:13:04.175Z,99955.06
2023-03-29T19:15:31.376Z,99963.66
2023-03-29T19:17:58.000Z,99952.09
2023-03-29T19:20:25.443Z,99956.75
2023-03-29T19:22:53.210Z,99954.94
2023-03-29T19:25:20.274Z,99946.47
2023-03-29T19:27:46.710Z,99922.44
2023-03-29T19:30:14.556Z,99923.09
2023-03-29T19:32:40.939Z,99923.03
2023-03-29T19:35:09.560Z,99921.03
2023-03-29T19:37:36.156Z,99924.50
2023-03-29T19:40:03.115Z,99921.03
2023-03-29T19:42:29.646Z,99915.13
2023-03-29T19:44:56.395Z,99912.28
2023-03-29T19:47:22.865Z,99911.00
2023-03-29T19:49:49.246Z,99912.09
2023-03-29T19:52:15.644Z,99905.16
2023-03-29T19:54:42.419Z,99908.53
2023-03-29T19:57:09.294Z,99896.06
2023-03-29T19:59:37.618Z,99888.31
2023-03-29T20:02:04.042Z,99892.72
2023-03-29T20:04:33.085Z,99887.47
2023-03-29T20:06:59.592Z,99887.88
2023-03-29T20:09:26.047Z,99880.03
2023-03-29T20:11:52.410Z,99878.59
2023-03-29T20:14:18.927Z,99878.16
2023-03-29T20:16:46.200Z,99872.59
2023-03-29T20:19:14.037Z,99868.66
2023-03-29T20:21:40.702Z,99860.00
2023-03-29T20:24:08.648Z,99853.81
2023-03-29T20:26:35.600Z,99849.44
2023-03-29T20:29:02.634Z,99848.41
2023-03-29T20:31:29.995Z,99850.22
2023-03-29T20:33:57.564Z,99851.41
2023-03-29T20:36:26.541Z,99842.59
2023-03-29T20:38:55.187Z,99842.25
2023-03-29T20:41:22.824Z,99848.38
2023-03-29T20:43:58.032Z,99837.50
2023-03-29T20:46:33.029Z,99836.47
2023-03-29T20:49:04.612Z,99833.25
2023-03-29T20:51:32.028Z,99829.00
2023-03-29T20:54:04.683Z,99826.91
2023-03-29T20:56:39.926Z,99826.66
2023-03-29T20:59:10.345Z,99827.09
2023-03-29T21:01:40.452Z,99822.31
2023-03-29T21:04:08.368Z,99826.59
2023-03-29T21:06:36.090Z,99826.72
2023-03-29T21:09:02.555Z,99822.91
2023-03-29T21:11:29.012Z,99815.34
2023-03-29T21:13:55.422Z,99815.84
2023-03-29T21:16:22.013Z,99810.41
2023-03-29T21:18:48.473Z,99797.13
2023-03-29T21:21:14.879Z,99802.16
2023-03-29T21:23:41.287Z,99803.41
2023-03-29T21:26:07.824Z,99797.94
2023-03-29T21:28:34.274Z,99804.19
2023-03-29T21:31:04.816Z,99805.00
2023-03-29T21:33:31.649Z,99804.13
2023-03-29T21:35:58.224Z,99798.63
2023-03-29T21:38:24.738Z,99795.16
2023-03-29T21:40:51.162Z,99790.50
2023-03-29T21:43:17.648Z,99786.63
2023-03-29T21:45:48.327Z,99789.13
2023-03-29T21:48:14.880Z,99775.16
2023-03-29T21:50:41.341Z,99773.25
2023-03-29T21:53:07.828Z,99769.94
2023-03-29T21:55:37.715Z,99769.22
2023-03-29T21:58:04.631Z,99770.50
2023-03-29T22:00:31.748Z,99768.13
2023-03-29T22:02:58.300Z,99770.00
2023-03-29T22:05:26.151Z,99773.81
2023-03-29T22:07:52.794Z,99776.41
2023-03-29T22:10:23.103Z,99769.34
2023-03-29T22:12:50.787Z,99766.34
2023-03-29T22:15:20.595Z,99769.03
2023-03-29T22:17:47.714Z,99765.03
2023-03-29T22:20:15.166Z,99769.88
2023-03-29T22:22:52.438Z,99779.88
2023-03-29T22:25:19.503Z,99781.50
2023-03-29T22:27:47.794Z,99778.84
2023-03-29T22:30:15.555Z,99780.03
2023-03-29T22:32:42.324Z,99780.50
2023-03-29T22:35:09.702Z,99780.44
2023-03-29T22:37:43.506Z,99776.97
2023-03-29T22:40:11.343Z,99776.41
2023-03-29T22:42:37.969Z,99774.72
2023-03-29T22:45:06.411Z,99773.06
2023-03-29T22:47:32.883Z,99779.41
2023-03-29T22:49:59.409Z,99775.03
2023-03-29T22:52:25.831Z,99776.41
2023-03-29T22:54:52.182Z,99775.06
2023-03-29T22:57:18.606Z,99772.59
2023-03-29T22:59:45.028Z,99770.41
2023-03-29T23:02:11.591Z,99751.56
2023-03-29T23:04:38.686Z,99741.25
2023-03-29T23:07:06.071Z,99741.19
2023-03-29T23:09:32.885Z,99738.59
2023-03-29T23:12:01.080Z,99738.25
2023-03-29T23:14:27.969Z,99728.97
2023-03-29T23:16:54.400Z,99722.13
2023-03-29T23:19:20.832Z,99724.22
2023-03-29T23:21:47.236Z,99723.78
2023-03-29T23:24:13.681Z,99729.91
2023-03-29T23:26:40.078Z,99717.81
2023-03-29T23:29:06.478Z,99721.41
2023-03-29T23:31:33.617Z,99715.72
2023-03-29T23:34:00.130Z,99722.00
2023-03-29T23:36:30.999Z,99728.25
2023-03-29T23:38:59.432Z,99724.28
2023-03-29T23:41:30.429Z,99720.19
2023-03-29T23:43:57.573Z,99713.41
2023-03-29T23:46:24.614Z,99716.19
2023-03-29T23:48:51.375Z,99715.00
2023-03-29T23:51:18.861Z,99711.19
2023-03-29T23:53:46.522Z,99706.03
2023-03-29T23:56:13.136Z,99705.44
2023-03-29T23:58:39.656Z,99698.38
